sensor_id;sensor_type;location;lat;lon;timestamp;P1;durP1;ratioP1;P2;durP2;ratioP2
39924;SDS011;25592;49.986;11.618;2022-12-01T00:02:42;17.75;;;8.38;;
39924;SDS011;25592;49.986;11.618;2022-12-01T00:05:28;19.38;;;8.35;;
39924;SDS011;25592;49.986;11.618;2022-12-01T00:08:13;18.65;;;8.20;;
39924;SDS011;25592;49.986;11.618;2022-12-01T00:11:03;20.15;;;8.50;;
39924;SDS011;25592;49.986;11.618;2022-12-01T00:13:49;18.95;;;9.00;;
39924;SDS011;25592;49.986;11.618;2022-12-01T00:16:35;18.10;;;9.20;;
39924;SDS011;25592;49.986;11.618;2022-12-01T00:19:23;18.17;;;9.82;;
39924;SDS011;25592;49.986;11.618;2022-12-01T00:22:08;17.02;;;9.23;;
39924;SDS011;25592;49.986;11.618;2022-12-01T00:24:54;18.90;;;9.07;;
39924;SDS011;25592;49.986;11.618;2022-12-01T00:27:39;21.95;;;11.07;;
39924;SDS011;25592;49.986;11.618;2022-12-01T00:30:25;19.42;;;9.20;;
39924;SDS011;25592;49.986;11.618;2022-12-01T00:33:11;20.67;;;10.15;;
39924;SDS011;25592;49.986;11.618;2022-12-01T00:35:57;21.45;;;10.30;;
39924;SDS011;25592;49.986;11.618;2022-12-01T00:38:43;19.30;;;9.05;;
39924;SDS011;25592;49.986;11.618;2022-12-01T00:41:29;19.38;;;9.73;;
39924;SDS011;25592;49.986;11.618;2022-12-01T00:44:14;19.10;;;9.65;;
39924;SDS011;25592;49.986;11.618;2022-12-01T00:46:59;22.77;;;10.43;;
39924;SDS011;25592;49.986;11.618;2022-12-01T00:49:45;17.98;;;8.50;;
39924;SDS011;25592;49.986;11.618;2022-12-01T00:52:31;20.80;;;9.98;;
39924;SDS011;25592;49.986;11.618;2022-12-01T00:55:16;22.42;;;10.13;;
39924;SDS011;25592;49.986;11.618;2022-12-01T00:58:01;18.23;;;9.05;;
39924;SDS011;25592;49.986;11.618;2022-12-01T01:00:48;20.90;;;9.95;;
39924;SDS011;25592;49.986;11.618;2022-12-01T01:03:39;20.77;;;10.70;;
39924;SDS011;25592;49.986;11.618;2022-12-01T01:06:25;20.60;;;10.02;;
39924;SDS011;25592;49.986;11.618;2022-12-01T01:09:10;18.58;;;10.00;;
39924;SDS011;25592;49.986;11.618;2022-12-01T01:11:56;19.92;;;9.55;;
39924;SDS011;25592;49.986;11.618;2022-12-01T01:14:42;21.63;;;10.10;;
39924;SDS011;25592;49.986;11.618;2022-12-01T01:17:28;18.20;;;9.20;;
39924;SDS011;25592;49.986;11.618;2022-12-01T01:20:13;20.02;;;9.27;;
39924;SDS011;25592;49.986;11.618;2022-12-01T01:22:59;19.70;;;10.10;;
39924;SDS011;25592;49.986;11.618;2022-12-01T01:25:44;20.80;;;9.90;;
39924;SDS011;25592;49.986;11.618;2022-12-01T01:28:29;21.50;;;10.55;;
39924;SDS011;25592;49.986;11.618;2022-12-01T01:31:16;20.33;;;9.63;;
39924;SDS011;25592;49.986;11.618;2022-12-01T01:34:04;22.45;;;9.77;;
39924;SDS011;25592;49.986;11.618;2022-12-01T01:36:50;19.40;;;9.07;;
39924;SDS011;25592;49.986;11.618;2022-12-01T01:39:35;24.30;;;11.00;;
39924;SDS011;25592;49.986;11.618;2022-12-01T01:42:21;20.60;;;9.85;;
39924;SDS011;25592;49.986;11.618;2022-12-01T01:45:15;18.02;;;9.13;;
39924;SDS011;25592;49.986;11.618;2022-12-01T01:48:09;18.73;;;10.02;;
39924;SDS011;25592;49.986;11.618;2022-12-01T01:50:56;20.48;;;10.18;;
39924;SDS011;25592;49.986;11.618;2022-12-01T01:53:42;20.23;;;9.60;;
39924;SDS011;25592;49.986;11.618;2022-12-01T01:56:30;21.58;;;10.50;;
39924;SDS011;25592;49.986;11.618;2022-12-01T01:59:18;21.05;;;10.18;;
39924;SDS011;25592;49.986;11.618;2022-12-01T02:02:08;19.98;;;9.90;;
39924;SDS011;25592;49.986;11.618;2022-12-01T02:04:56;23.88;;;10.82;;
39924;SDS011;25592;49.986;11.618;2022-12-01T02:07:46;22.50;;;10.02;;
39924;SDS011;25592;49.986;11.618;2022-12-01T02:14:07;20.00;;;9.98;;
39924;SDS011;25592;49.986;11.618;2022-12-01T02:36:14;18.27;;;8.18;;
39924;SDS011;25592;49.986;11.618;2022-12-01T02:39:04;18.15;;;8.07;;
39924;SDS011;25592;49.986;11.618;2022-12-01T02:41:59;17.95;;;8.50;;
39924;SDS011;25592;49.986;11.618;2022-12-01T02:44:47;16.27;;;8.30;;
39924;SDS011;25592;49.986;11.618;2022-12-01T02:47:32;18.98;;;10.05;;
39924;SDS011;25592;49.986;11.618;2022-12-01T02:50:20;15.63;;;8.02;;
39924;SDS011;25592;49.986;11.618;2022-12-01T02:53:08;19.70;;;8.65;;
39924;SDS011;25592;49.986;11.618;2022-12-01T02:55:56;21.73;;;9.30;;
39924;SDS011;25592;49.986;11.618;2022-12-01T02:58:42;19.67;;;8.27;;
39924;SDS011;25592;49.986;11.618;2022-12-01T03:19:17;21.38;;;10.23;;
39924;SDS011;25592;49.986;11.618;2022-12-01T03:22:22;23.98;;;10.77;;
39924;SDS011;25592;49.986;11.618;2022-12-01T03:25:12;21.67;;;10.60;;
39924;SDS011;25592;49.986;11.618;2022-12-01T03:27:59;21.55;;;10.40;;
39924;SDS011;25592;49.986;11.618;2022-12-01T03:31:07;24.20;;;11.38;;
39924;SDS011;25592;49.986;11.618;2022-12-01T03:34:44;25.40;;;10.85;;
39924;SDS011;25592;49.986;11.618;2022-12-01T03:37:22;22.55;;;11.18;;
39924;SDS011;25592;49.986;11.618;2022-12-01T03:40:15;25.80;;;11.63;;
39924;SDS011;25592;49.986;11.618;2022-12-01T03:43:06;21.52;;;10.77;;
39924;SDS011;25592;49.986;11.618;2022-12-01T03:45:58;23.85;;;12.40;;
39924;SDS011;25592;49.986;11.618;2022-12-01T03:49:02;26.10;;;10.75;;
39924;SDS011;25592;49.986;11.618;2022-12-01T03:51:56;25.88;;;11.68;;
39924;SDS011;25592;49.986;11.618;2022-12-01T03:58:16;26.25;;;12.13;;
39924;SDS011;25592;49.986;11.618;2022-12-01T04:01:05;27.90;;;12.32;;
39924;SDS011;25592;49.986;11.618;2022-12-01T04:03:51;26.77;;;11.38;;
39924;SDS011;25592;49.986;11.618;2022-12-01T04:06:36;28.85;;;11.57;;
39924;SDS011;25592;49.986;11.618;2022-12-01T04:09:24;23.25;;;11.85;;
39924;SDS011;25592;49.986;11.618;2022-12-01T04:12:10;26.25;;;12.30;;
39924;SDS011;25592;49.986;11.618;2022-12-01T04:15:13;25.13;;;10.98;;
39924;SDS011;25592;49.986;11.618;2022-12-01T04:17:58;22.67;;;10.75;;
39924;SDS011;25592;49.986;11.618;2022-12-01T04:20:44;25.55;;;12.00;;
39924;SDS011;25592;49.986;11.618;2022-12-01T04:23:30;24.20;;;12.15;;
39924;SDS011;25592;49.986;11.618;2022-12-01T04:26:35;23.13;;;10.63;;
39924;SDS011;25592;49.986;11.618;2022-12-01T04:29:21;27.60;;;12.85;;
39924;SDS011;25592;49.986;11.618;2022-12-01T04:32:07;29.83;;;13.18;;
39924;SDS011;25592;49.986;11.618;2022-12-01T04:34:52;26.23;;;11.90;;
39924;SDS011;25592;49.986;11.618;2022-12-01T04:37:38;27.90;;;11.98;;
39924;SDS011;25592;49.986;11.618;2022-12-01T04:40:24;25.70;;;11.45;;
39924;SDS011;25592;49.986;11.618;2022-12-01T04:43:09;26.08;;;11.25;;
39924;SDS011;25592;49.986;11.618;2022-12-01T04:45:54;22.33;;;10.57;;
39924;SDS011;25592;49.986;11.618;2022-12-01T04:48:40;27.80;;;13.25;;
39924;SDS011;25592;49.986;11.618;2022-12-01T04:51:25;28.23;;;12.13;;
39924;SDS011;25592;49.986;11.618;2022-12-01T04:54:11;26.25;;;11.60;;
39924;SDS011;25592;49.986;11.618;2022-12-01T04:56:56;30.58;;;14.27;;
39924;SDS011;25592;49.986;11.618;2022-12-01T04:59:41;28.73;;;13.00;;
39924;SDS011;25592;49.986;11.618;2022-12-01T05:02:27;30.30;;;14.45;;
39924;SDS011;25592;49.986;11.618;2022-12-01T05:05:12;30.83;;;13.70;;
39924;SDS011;25592;49.986;11.618;2022-12-01T05:07:58;26.63;;;12.15;;
39924;SDS011;25592;49.986;11.618;2022-12-01T05:10:43;26.58;;;11.82;;
39924;SDS011;25592;49.986;11.618;2022-12-01T05:13:29;27.60;;;12.40;;
39924;SDS011;25592;49.986;11.618;2022-12-01T05:16:18;31.15;;;12.02;;
39924;SDS011;25592;49.986;11.618;2022-12-01T05:19:06;26.63;;;13.17;;
39924;SDS011;25592;49.986;11.618;2022-12-01T05:22:10;28.70;;;12.10;;
39924;SDS011;25592;49.986;11.618;2022-12-01T05:24:55;30.92;;;13.50;;
39924;SDS011;25592;49.986;11.618;2022-12-01T05:27:41;29.15;;;12.35;;
39924;SDS011;25592;49.986;11.618;2022-12-01T05:30:26;28.10;;;13.20;;
39924;SDS011;25592;49.986;11.618;2022-12-01T05:33:12;28.75;;;11.43;;
39924;SDS011;25592;49.986;11.618;2022-12-01T05:35:58;33.47;;;13.45;;
39924;SDS011;25592;49.986;11.618;2022-12-01T05:38:43;30.45;;;12.60;;
39924;SDS011;25592;49.986;11.618;2022-12-01T05:41:29;29.13;;;12.32;;
39924;SDS011;25592;49.986;11.618;2022-12-01T05:44:14;28.25;;;13.10;;
39924;SDS011;25592;49.986;11.618;2022-12-01T05:47:00;29.73;;;13.05;;
39924;SDS011;25592;49.986;11.618;2022-12-01T05:49:45;28.23;;;12.20;;
39924;SDS011;25592;49.986;11.618;2022-12-01T05:52:32;30.73;;;13.10;;
39924;SDS011;25592;49.986;11.618;2022-12-01T05:55:18;30.23;;;12.38;;
39924;SDS011;25592;49.986;11.618;2022-12-01T05:58:04;31.13;;;14.00;;
39924;SDS011;25592;49.986;11.618;2022-12-01T06:00:50;28.63;;;13.07;;
39924;SDS011;25592;49.986;11.618;2022-12-01T06:03:35;34.30;;;13.18;;
39924;SDS011;25592;49.986;11.618;2022-12-01T06:06:21;31.60;;;13.57;;
39924;SDS011;25592;49.986;11.618;2022-12-01T06:09:06;28.58;;;12.63;;
39924;SDS011;25592;49.986;11.618;2022-12-01T06:11:52;29.00;;;11.60;;
39924;SDS011;25592;49.986;11.618;2022-12-01T06:14:37;28.85;;;13.68;;
39924;SDS011;25592;49.986;11.618;2022-12-01T06:17:23;28.35;;;12.82;;
39924;SDS011;25592;49.986;11.618;2022-12-01T06:20:08;27.30;;;11.60;;
39924;SDS011;25592;49.986;11.618;2022-12-01T06:22:54;30.45;;;12.85;;
39924;SDS011;25592;49.986;11.618;2022-12-01T06:25:39;29.45;;;12.93;;
39924;SDS011;25592;49.986;11.618;2022-12-01T06:28:25;26.17;;;12.40;;
39924;SDS011;25592;49.986;11.618;2022-12-01T06:31:10;27.30;;;11.90;;
39924;SDS011;25592;49.986;11.618;2022-12-01T06:33:56;31.48;;;13.27;;
39924;SDS011;25592;49.986;11.618;2022-12-01T06:36:42;27.23;;;11.98;;
39924;SDS011;25592;49.986;11.618;2022-12-01T06:39:27;28.58;;;13.02;;
39924;SDS011;25592;49.986;11.618;2022-12-01T06:42:13;26.70;;;12.35;;
39924;SDS011;25592;49.986;11.618;2022-12-01T06:44:59;31.50;;;12.77;;
39924;SDS011;25592;49.986;11.618;2022-12-01T06:47:44;30.17;;;13.77;;
39924;SDS011;25592;49.986;11.618;2022-12-01T06:50:31;30.98;;;11.63;;
39924;SDS011;25592;49.986;11.618;2022-12-01T06:53:17;29.67;;;12.48;;
39924;SDS011;25592;49.986;11.618;2022-12-01T06:56:03;28.23;;;11.52;;
39924;SDS011;25592;49.986;11.618;2022-12-01T06:58:49;25.42;;;11.75;;
39924;SDS011;25592;49.986;11.618;2022-12-01T07:01:35;34.75;;;13.60;;
39924;SDS011;25592;49.986;11.618;2022-12-01T07:04:20;28.38;;;12.63;;
39924;SDS011;25592;49.986;11.618;2022-12-01T07:07:05;30.00;;;12.25;;
39924;SDS011;25592;49.986;11.618;2022-12-01T07:09:51;31.27;;;13.32;;
39924;SDS011;25592;49.986;11.618;2022-12-01T07:12:36;30.63;;;12.93;;
39924;SDS011;25592;49.986;11.618;2022-12-01T07:15:22;27.90;;;11.60;;
39924;SDS011;25592;49.986;11.618;2022-12-01T07:18:08;29.58;;;12.68;;
39924;SDS011;25592;49.986;11.618;2022-12-01T07:20:53;27.90;;;12.95;;
39924;SDS011;25592;49.986;11.618;2022-12-01T07:23:42;31.80;;;11.63;;
39924;SDS011;25592;49.986;11.618;2022-12-01T07:26:28;31.00;;;13.32;;
39924;SDS011;25592;49.986;11.618;2022-12-01T07:29:13;29.63;;;14.00;;
39924;SDS011;25592;49.986;11.618;2022-12-01T07:31:59;33.47;;;15.30;;
39924;SDS011;25592;49.986;11.618;2022-12-01T07:34:44;36.72;;;16.48;;
39924;SDS011;25592;49.986;11.618;2022-12-01T07:37:29;29.13;;;13.52;;
39924;SDS011;25592;49.986;11.618;2022-12-01T07:40:15;31.27;;;13.63;;
39924;SDS011;25592;49.986;11.618;2022-12-01T07:43:00;32.20;;;13.68;;
39924;SDS011;25592;49.986;11.618;2022-12-01T07:45:45;30.35;;;13.85;;
39924;SDS011;25592;49.986;11.618;2022-12-01T07:48:31;31.42;;;13.30;;
39924;SDS011;25592;49.986;11.618;2022-12-01T07:51:16;27.92;;;12.52;;
39924;SDS011;25592;49.986;11.618;2022-12-01T07:54:03;28.02;;;12.90;;
39924;SDS011;25592;49.986;11.618;2022-12-01T07:56:50;29.30;;;12.98;;
39924;SDS011;25592;49.986;11.618;2022-12-01T07:59:35;27.67;;;13.05;;
39924;SDS011;25592;49.986;11.618;2022-12-01T08:02:20;29.85;;;13.02;;
39924;SDS011;25592;49.986;11.618;2022-12-01T08:05:06;28.17;;;13.10;;
39924;SDS011;25592;49.986;11.618;2022-12-01T08:07:52;28.25;;;13.15;;
39924;SDS011;25592;49.986;11.618;2022-12-01T08:10:37;27.88;;;12.60;;
39924;SDS011;25592;49.986;11.618;2022-12-01T08:13:23;29.80;;;13.07;;
39924;SDS011;25592;49.986;11.618;2022-12-01T08:16:09;28.23;;;13.45;;
39924;SDS011;25592;49.986;11.618;2022-12-01T08:18:56;28.30;;;12.32;;
39924;SDS011;25592;49.986;11.618;2022-12-01T08:21:42;29.35;;;13.73;;
39924;SDS011;25592;49.986;11.618;2022-12-01T08:24:27;26.55;;;13.52;;
39924;SDS011;25592;49.986;11.618;2022-12-01T08:27:13;24.90;;;12.45;;
39924;SDS011;25592;49.986;11.618;2022-12-01T08:29:58;23.65;;;11.95;;
39924;SDS011;25592;49.986;11.618;2022-12-01T08:32:44;27.67;;;14.05;;
39924;SDS011;25592;49.986;11.618;2022-12-01T08:35:29;27.58;;;12.18;;
39924;SDS011;25592;49.986;11.618;2022-12-01T08:38:14;27.77;;;12.98;;
39924;SDS011;25592;49.986;11.618;2022-12-01T08:41:04;28.42;;;13.73;;
39924;SDS011;25592;49.986;11.618;2022-12-01T08:43:51;27.55;;;12.45;;
39924;SDS011;25592;49.986;11.618;2022-12-01T08:46:42;26.35;;;13.10;;
39924;SDS011;25592;49.986;11.618;2022-12-01T08:49:28;30.25;;;12.38;;
39924;SDS011;25592;49.986;11.618;2022-12-01T08:52:13;27.67;;;12.93;;
39924;SDS011;25592;49.986;11.618;2022-12-01T08:54:58;26.98;;;13.45;;
39924;SDS011;25592;49.986;11.618;2022-12-01T08:57:44;25.55;;;12.55;;
39924;SDS011;25592;49.986;11.618;2022-12-01T09:00:29;28.23;;;12.63;;
39924;SDS011;25592;49.986;11.618;2022-12-01T09:03:15;28.75;;;12.98;;
39924;SDS011;25592;49.986;11.618;2022-12-01T09:06:04;33.35;;;16.02;;
39924;SDS011;25592;49.986;11.618;2022-12-01T09:08:51;33.38;;;14.50;;
39924;SDS011;25592;49.986;11.618;2022-12-01T09:11:36;30.63;;;14.20;;
39924;SDS011;25592;49.986;11.618;2022-12-01T09:14:22;33.85;;;14.85;;
39924;SDS011;25592;49.986;11.618;2022-12-01T09:17:08;29.83;;;13.85;;
39924;SDS011;25592;49.986;11.618;2022-12-01T09:19:53;29.88;;;14.05;;
39924;SDS011;25592;49.986;11.618;2022-12-01T09:22:38;34.92;;;15.00;;
39924;SDS011;25592;49.986;11.618;2022-12-01T09:25:24;31.60;;;14.50;;
39924;SDS011;25592;49.986;11.618;2022-12-01T09:28:09;33.13;;;14.27;;
39924;SDS011;25592;49.986;11.618;2022-12-01T09:30:55;31.05;;;14.32;;
39924;SDS011;25592;49.986;11.618;2022-12-01T09:33:40;38.63;;;15.40;;
39924;SDS011;25592;49.986;11.618;2022-12-01T09:36:26;32.05;;;15.48;;
39924;SDS011;25592;49.986;11.618;2022-12-01T09:39:14;32.20;;;14.65;;
39924;SDS011;25592;49.986;11.618;2022-12-01T09:42:02;35.05;;;15.75;;
39924;SDS011;25592;49.986;11.618;2022-12-01T09:44:53;31.27;;;14.85;;
39924;SDS011;25592;49.986;11.618;2022-12-01T09:47:41;34.22;;;14.60;;
39924;SDS011;25592;49.986;11.618;2022-12-01T09:50:30;35.90;;;15.50;;
39924;SDS011;25592;49.986;11.618;2022-12-01T09:53:21;34.60;;;15.65;;
39924;SDS011;25592;49.986;11.618;2022-12-01T09:56:20;34.65;;;14.68;;
39924;SDS011;25592;49.986;11.618;2022-12-01T09:59:10;42.38;;;17.92;;
39924;SDS011;25592;49.986;11.618;2022-12-01T10:02:02;34.72;;;15.45;;
39924;SDS011;25592;49.986;11.618;2022-12-01T10:04:57;36.08;;;16.05;;
39924;SDS011;25592;49.986;11.618;2022-12-01T10:07:50;34.78;;;15.55;;
39924;SDS011;25592;49.986;11.618;2022-12-01T10:10:45;37.05;;;16.13;;
39924;SDS011;25592;49.986;11.618;2022-12-01T10:13:32;41.33;;;17.13;;
39924;SDS011;25592;49.986;11.618;2022-12-01T10:16:20;32.65;;;15.98;;
39924;SDS011;25592;49.986;11.618;2022-12-01T10:19:14;38.28;;;16.70;;
39924;SDS011;25592;49.986;11.618;2022-12-01T10:31:25;35.83;;;17.70;;
39924;SDS011;25592;49.986;11.618;2022-12-01T10:37:05;33.70;;;15.98;;
39924;SDS011;25592;49.986;11.618;2022-12-01T10:40:00;40.38;;;16.40;;
39924;SDS011;25592;49.986;11.618;2022-12-01T10:42:47;37.63;;;17.30;;
39924;SDS011;25592;49.986;11.618;2022-12-01T10:45:34;36.67;;;17.05;;
39924;SDS011;25592;49.986;11.618;2022-12-01T10:48:24;38.13;;;17.98;;
39924;SDS011;25592;49.986;11.618;2022-12-01T10:51:14;31.83;;;15.45;;
39924;SDS011;25592;49.986;11.618;2022-12-01T10:54:07;35.25;;;16.20;;
39924;SDS011;25592;49.986;11.618;2022-12-01T10:56:55;36.65;;;15.82;;
39924;SDS011;25592;49.986;11.618;2022-12-01T11:00:01;37.72;;;15.18;;
39924;SDS011;25592;49.986;11.618;2022-12-01T11:02:50;34.78;;;16.20;;
39924;SDS011;25592;49.986;11.618;2022-12-01T11:05:38;37.42;;;16.95;;
39924;SDS011;25592;49.986;11.618;2022-12-01T11:08:37;32.42;;;15.63;;
39924;SDS011;25592;49.986;11.618;2022-12-01T11:11:38;30.25;;;14.75;;
39924;SDS011;25592;49.986;11.618;2022-12-01T11:14:29;33.60;;;14.77;;
39924;SDS011;25592;49.986;11.618;2022-12-01T11:20:26;37.47;;;15.65;;
39924;SDS011;25592;49.986;11.618;2022-12-01T11:26:04;35.88;;;16.50;;
39924;SDS011;25592;49.986;11.618;2022-12-01T11:28:51;33.72;;;14.77;;
39924;SDS011;25592;49.986;11.618;2022-12-01T11:31:42;36.83;;;17.15;;
39924;SDS011;25592;49.986;11.618;2022-12-01T11:34:31;32.80;;;16.02;;
39924;SDS011;25592;49.986;11.618;2022-12-01T11:37:18;36.47;;;17.25;;
39924;SDS011;25592;49.986;11.618;2022-12-01T11:40:06;36.17;;;15.55;;
39924;SDS011;25592;49.986;11.618;2022-12-01T11:43:05;36.67;;;15.77;;
39924;SDS011;25592;49.986;11.618;2022-12-01T11:45:51;36.53;;;17.42;;
39924;SDS011;25592;49.986;11.618;2022-12-01T11:48:38;34.53;;;15.18;;
39924;SDS011;25592;49.986;11.618;2022-12-01T11:51:26;36.72;;;17.42;;
39924;SDS011;25592;49.986;11.618;2022-12-01T11:54:22;39.85;;;18.05;;
39924;SDS011;25592;49.986;11.618;2022-12-01T11:57:09;40.83;;;18.83;;
39924;SDS011;25592;49.986;11.618;2022-12-01T12:00:18;33.92;;;15.85;;
39924;SDS011;25592;49.986;11.618;2022-12-01T12:03:27;36.55;;;15.90;;
39924;SDS011;25592;49.986;11.618;2022-12-01T12:06:28;59.45;;;19.35;;
39924;SDS011;25592;49.986;11.618;2022-12-01T12:09:37;38.95;;;17.38;;
39924;SDS011;25592;49.986;11.618;2022-12-01T12:18:59;33.03;;;13.93;;
39924;SDS011;25592;49.986;11.618;2022-12-01T12:22:04;35.55;;;15.68;;
39924;SDS011;25592;49.986;11.618;2022-12-01T12:32:18;38.92;;;16.08;;
39924;SDS011;25592;49.986;11.618;2022-12-01T12:38:00;32.38;;;16.30;;
39924;SDS011;25592;49.986;11.618;2022-12-01T12:41:04;36.22;;;16.10;;
39924;SDS011;25592;49.986;11.618;2022-12-01T12:44:25;40.65;;;16.58;;
39924;SDS011;25592;49.986;11.618;2022-12-01T12:47:35;36.28;;;16.40;;
39924;SDS011;25592;49.986;11.618;2022-12-01T12:50:52;33.42;;;15.35;;
39924;SDS011;25592;49.986;11.618;2022-12-01T12:57:02;40.40;;;17.55;;
39924;SDS011;25592;49.986;11.618;2022-12-01T12:59:53;34.00;;;17.00;;
39924;SDS011;25592;49.986;11.618;2022-12-01T13:03:14;35.05;;;15.88;;
39924;SDS011;25592;49.986;11.618;2022-12-01T13:08:56;33.05;;;13.73;;
39924;SDS011;25592;49.986;11.618;2022-12-01T13:12:08;30.07;;;14.83;;
39924;SDS011;25592;49.986;11.618;2022-12-01T13:15:26;27.13;;;14.27;;
39924;SDS011;25592;49.986;11.618;2022-12-01T13:18:34;32.50;;;14.48;;
39924;SDS011;25592;49.986;11.618;2022-12-01T13:21:26;29.80;;;13.82;;
39924;SDS011;25592;49.986;11.618;2022-12-01T13:24:19;26.98;;;13.75;;
39924;SDS011;25592;49.986;11.618;2022-12-01T13:30:04;35.50;;;15.63;;
39924;SDS011;25592;49.986;11.618;2022-12-01T13:33:03;31.67;;;13.25;;
39924;SDS011;25592;49.986;11.618;2022-12-01T13:35:53;33.10;;;13.75;;
39924;SDS011;25592;49.986;11.618;2022-12-01T13:39:05;34.75;;;12.27;;
39924;SDS011;25592;49.986;11.618;2022-12-01T13:42:19;26.33;;;12.77;;
39924;SDS011;25592;49.986;11.618;2022-12-01T13:45:15;28.17;;;13.10;;
39924;SDS011;25592;49.986;11.618;2022-12-01T13:48:03;26.23;;;12.18;;
39924;SDS011;25592;49.986;11.618;2022-12-01T13:50:57;25.63;;;12.50;;
39924;SDS011;25592;49.986;11.618;2022-12-01T13:53:59;27.63;;;12.27;;
39924;SDS011;25592;49.986;11.618;2022-12-01T13:56:57;30.90;;;13.55;;
39924;SDS011;25592;49.986;11.618;2022-12-01T14:02:41;27.75;;;12.85;;
39924;SDS011;25592;49.986;11.618;2022-12-01T14:08:29;25.17;;;12.52;;
39924;SDS011;25592;49.986;11.618;2022-12-01T14:11:19;30.08;;;12.52;;
39924;SDS011;25592;49.986;11.618;2022-12-01T14:16:54;27.27;;;12.02;;
39924;SDS011;25592;49.986;11.618;2022-12-01T14:19:49;26.30;;;11.70;;
39924;SDS011;25592;49.986;11.618;2022-12-01T14:22:40;26.17;;;10.73;;
39924;SDS011;25592;49.986;11.618;2022-12-01T14:25:27;25.23;;;11.90;;
39924;SDS011;25592;49.986;11.618;2022-12-01T14:28:15;29.05;;;13.95;;
39924;SDS011;25592;49.986;11.618;2022-12-01T14:31:01;25.92;;;11.40;;
39924;SDS011;25592;49.986;11.618;2022-12-01T14:33:51;31.08;;;13.05;;
39924;SDS011;25592;49.986;11.618;2022-12-01T14:36:42;32.08;;;14.13;;
39924;SDS011;25592;49.986;11.618;2022-12-01T14:39:34;23.13;;;11.93;;
39924;SDS011;25592;49.986;11.618;2022-12-01T14:42:35;27.05;;;12.30;;
39924;SDS011;25592;49.986;11.618;2022-12-01T14:45:45;30.65;;;12.98;;
39924;SDS011;25592;49.986;11.618;2022-12-01T14:48:50;28.38;;;12.73;;
39924;SDS011;25592;49.986;11.618;2022-12-01T14:51:40;32.33;;;14.23;;
39924;SDS011;25592;49.986;11.618;2022-12-01T14:54:29;29.33;;;13.18;;
39924;SDS011;25592;49.986;11.618;2022-12-01T14:57:19;27.67;;;12.32;;
39924;SDS011;25592;49.986;11.618;2022-12-01T15:00:12;36.72;;;13.35;;
39924;SDS011;25592;49.986;11.618;2022-12-01T15:03:08;33.03;;;12.57;;
39924;SDS011;25592;49.986;11.618;2022-12-01T15:05:57;29.35;;;12.90;;
39924;SDS011;25592;49.986;11.618;2022-12-01T15:08:43;30.33;;;14.20;;
39924;SDS011;25592;49.986;11.618;2022-12-01T15:11:53;31.63;;;13.82;;
39924;SDS011;25592;49.986;11.618;2022-12-01T15:14:45;29.55;;;12.43;;
39924;SDS011;25592;49.986;11.618;2022-12-01T15:17:33;32.28;;;12.32;;
39924;SDS011;25592;49.986;11.618;2022-12-01T15:20:28;29.25;;;13.13;;
39924;SDS011;25592;49.986;11.618;2022-12-01T15:23:18;25.05;;;11.98;;
39924;SDS011;25592;49.986;11.618;2022-12-01T15:26:03;27.70;;;12.27;;
39924;SDS011;25592;49.986;11.618;2022-12-01T15:28:49;27.17;;;13.52;;
39924;SDS011;25592;49.986;11.618;2022-12-01T15:31:48;23.77;;;11.07;;
39924;SDS011;25592;49.986;11.618;2022-12-01T15:34:37;28.65;;;13.10;;
39924;SDS011;25592;49.986;11.618;2022-12-01T15:37:25;31.05;;;12.88;;
39924;SDS011;25592;49.986;11.618;2022-12-01T15:40:15;30.75;;;13.30;;
39924;SDS011;25592;49.986;11.618;2022-12-01T15:43:23;26.70;;;12.05;;
39924;SDS011;25592;49.986;11.618;2022-12-01T15:46:17;20.60;;;11.25;;
39924;SDS011;25592;49.986;11.618;2022-12-01T15:49:17;26.80;;;13.20;;
39924;SDS011;25592;49.986;11.618;2022-12-01T15:52:13;25.98;;;12.35;;
39924;SDS011;25592;49.986;11.618;2022-12-01T15:55:00;28.25;;;12.88;;
39924;SDS011;25592;49.986;11.618;2022-12-01T15:57:48;25.83;;;11.48;;
39924;SDS011;25592;49.986;11.618;2022-12-01T16:00:33;30.45;;;11.90;;
39924;SDS011;25592;49.986;11.618;2022-12-01T16:03:19;33.55;;;12.30;;
39924;SDS011;25592;49.986;11.618;2022-12-01T16:06:04;25.27;;;12.00;;
39924;SDS011;25592;49.986;11.618;2022-12-01T16:08:57;21.48;;;10.75;;
39924;SDS011;25592;49.986;11.618;2022-12-01T16:12:04;28.10;;;12.13;;
39924;SDS011;25592;49.986;11.618;2022-12-01T16:17:46;24.40;;;11.32;;
39924;SDS011;25592;49.986;11.618;2022-12-01T16:20:38;25.75;;;11.13;;
39924;SDS011;25592;49.986;11.618;2022-12-01T16:23:26;26.70;;;11.82;;
39924;SDS011;25592;49.986;11.618;2022-12-01T16:26:11;28.70;;;13.15;;
39924;SDS011;25592;49.986;11.618;2022-12-01T16:28:57;31.13;;;12.48;;
39924;SDS011;25592;49.986;11.618;2022-12-01T16:31:43;30.00;;;12.32;;
39924;SDS011;25592;49.986;11.618;2022-12-01T16:34:51;27.88;;;12.07;;
39924;SDS011;25592;49.986;11.618;2022-12-01T16:37:37;29.52;;;12.98;;
39924;SDS011;25592;49.986;11.618;2022-12-01T16:40:22;25.60;;;12.10;;
39924;SDS011;25592;49.986;11.618;2022-12-01T16:43:15;29.83;;;13.52;;
39924;SDS011;25592;49.986;11.618;2022-12-01T16:46:02;24.33;;;10.85;;
39924;SDS011;25592;49.986;11.618;2022-12-01T16:48:50;25.98;;;11.38;;
39924;SDS011;25592;49.986;11.618;2022-12-01T16:51:35;25.00;;;10.43;;
39924;SDS011;25592;49.986;11.618;2022-12-01T16:54:39;24.63;;;10.77;;
39924;SDS011;25592;49.986;11.618;2022-12-01T16:57:24;24.05;;;10.75;;
39924;SDS011;25592;49.986;11.618;2022-12-01T17:00:10;30.45;;;12.15;;
39924;SDS011;25592;49.986;11.618;2022-12-01T17:02:55;25.88;;;9.98;;
39924;SDS011;25592;49.986;11.618;2022-12-01T17:05:42;27.98;;;12.05;;
39924;SDS011;25592;49.986;11.618;2022-12-01T17:08:27;24.52;;;11.27;;
39924;SDS011;25592;49.986;11.618;2022-12-01T17:11:13;22.60;;;10.98;;
39924;SDS011;25592;49.986;11.618;2022-12-01T17:13:58;23.77;;;10.98;;
39924;SDS011;25592;49.986;11.618;2022-12-01T17:16:44;29.60;;;11.40;;
39924;SDS011;25592;49.986;11.618;2022-12-01T17:19:29;23.35;;;11.88;;
39924;SDS011;25592;49.986;11.618;2022-12-01T17:22:15;29.13;;;11.52;;
39924;SDS011;25592;49.986;11.618;2022-12-01T17:25:00;22.92;;;10.93;;
39924;SDS011;25592;49.986;11.618;2022-12-01T17:27:46;26.63;;;11.13;;
39924;SDS011;25592;49.986;11.618;2022-12-01T17:30:32;24.88;;;12.15;;
39924;SDS011;25592;49.986;11.618;2022-12-01T17:33:17;25.95;;;11.25;;
39924;SDS011;25592;49.986;11.618;2022-12-01T17:36:04;30.63;;;12.30;;
39924;SDS011;25592;49.986;11.618;2022-12-01T17:38:57;27.20;;;11.13;;
39924;SDS011;25592;49.986;11.618;2022-12-01T17:41:42;26.98;;;10.95;;
39924;SDS011;25592;49.986;11.618;2022-12-01T17:44:27;30.00;;;12.13;;
39924;SDS011;25592;49.986;11.618;2022-12-01T17:47:13;30.02;;;12.40;;
39924;SDS011;25592;49.986;11.618;2022-12-01T17:49:58;25.75;;;11.73;;
39924;SDS011;25592;49.986;11.618;2022-12-01T17:52:44;30.08;;;13.15;;
39924;SDS011;25592;49.986;11.618;2022-12-01T17:55:29;27.50;;;12.10;;
39924;SDS011;25592;49.986;11.618;2022-12-01T17:58:15;32.22;;;12.88;;
39924;SDS011;25592;49.986;11.618;2022-12-01T18:01:05;23.30;;;11.88;;